createdAt,value
2019-05-18T00:00:46.221Z,44.83
2019-05-18T00:03:14.822Z,47.27
2019-05-18T00:05:43.541Z,48.98
2019-05-18T00:08:12.144Z,48.73
2019-05-18T00:10:41.007Z,50.03
2019-05-18T00:13:09.698Z,49.53
2019-05-18T00:15:38.447Z,45.50
2019-05-18T00:18:07.065Z,49.55
2019-05-18T00:20:35.921Z,46.20
2019-05-18T00:23:04.491Z,47.30
2019-05-18T00:25:33.023Z,45.80
2019-05-18T00:28:01.623Z,42.90
2019-05-18T00:30:31.977Z,43.92
2019-05-18T00:33:00.523Z,47.95
2019-05-18T00:35:29.382Z,45.83
2019-05-18T00:37:57.920Z,51.13
2019-05-18T00:40:26.435Z,52.62
2019-05-18T00:42:55.001Z,45.20
2019-05-18T00:45:23.464Z,48.83
2019-05-18T00:47:52.005Z,47.53
2019-05-18T00:50:21.150Z,47.78
2019-05-18T00:52:49.787Z,46.58
2019-05-18T00:55:18.407Z,58.15
2019-05-18T00:57:46.949Z,57.03
2019-05-18T01:00:16.411Z,49.20
2019-05-18T01:02:44.952Z,46.70
2019-05-18T01:05:14.056Z,47.13
2019-05-18T01:07:42.529Z,54.40
2019-05-18T01:10:11.712Z,48.68
2019-05-18T01:12:40.544Z,55.75
2019-05-18T01:15:11.024Z,50.40
2019-05-18T01:17:39.565Z,50.10
2019-05-18T01:20:09.075Z,49.30
2019-05-18T01:22:37.712Z,49.23
2019-05-18T01:25:06.906Z,48.52
2019-05-18T01:27:35.524Z,46.80
2019-05-18T01:30:06.240Z,45.73
2019-05-18T01:32:34.863Z,49.10
2019-05-18T01:35:05.743Z,49.05
2019-05-18T01:37:34.325Z,54.35
2019-05-18T01:40:04.167Z,45.00
2019-05-18T01:42:32.677Z,50.98
2019-05-18T01:45:15.403Z,54.80
2019-05-18T01:47:31.501Z,52.60
2019-05-18T01:50:00.060Z,53.38
2019-05-18T01:52:29.814Z,50.98
2019-05-18T01:54:58.384Z,52.70
2019-05-18T01:57:27.080Z,52.33
2019-05-18T01:59:55.548Z,49.95
2019-05-18T02:02:24.201Z,49.40
2019-05-18T02:04:52.967Z,50.83
2019-05-18T02:07:21.458Z,49.38
2019-05-18T02:09:50.270Z,43.48
2019-05-18T02:12:18.898Z,46.90
2019-05-18T02:14:47.482Z,49.45
2019-05-18T02:17:15.992Z,50.43
2019-05-18T02:19:44.922Z,51.70
2019-05-18T02:22:14.906Z,48.65
2019-05-18T02:24:43.714Z,49.05
2019-05-18T02:27:12.461Z,52.62
2019-05-18T02:29:41.078Z,49.25
2019-05-18T02:32:09.671Z,47.70
2019-05-18T02:34:38.798Z,48.45
2019-05-18T02:37:07.423Z,47.60
2019-05-18T02:39:36.090Z,48.83
2019-05-18T02:42:04.964Z,48.85
2019-05-18T02:44:33.687Z,50.63
2019-05-18T02:47:02.290Z,48.50
2019-05-18T02:49:31.043Z,49.67
2019-05-18T02:52:00.025Z,51.28
2019-05-18T02:54:28.646Z,50.58
2019-05-18T02:56:57.359Z,51.18
2019-05-18T02:59:25.906Z,49.55
2019-05-18T03:01:54.751Z,48.87
2019-05-18T03:04:23.391Z,47.15
2019-05-18T03:06:51.896Z,45.15
2019-05-18T03:09:20.798Z,47.50
2019-05-18T03:11:49.719Z,47.58
2019-05-18T03:14:18.214Z,46.25
2019-05-18T03:16:46.806Z,45.80
2019-05-18T03:19:15.665Z,48.48
2019-05-18T03:21:45.525Z,49.05
2019-05-18T03:24:14.067Z,48.95
2019-05-18T03:26:42.840Z,45.98
2019-05-18T03:29:11.453Z,45.80
2019-05-18T03:31:43.208Z,48.98
2019-05-18T03:34:12.054Z,45.58
2019-05-18T03:36:40.605Z,45.00
2019-05-18T03:39:09.529Z,45.08
2019-05-18T03:41:38.317Z,44.38
2019-05-18T03:44:06.842Z,45.80
2019-05-18T03:46:35.545Z,48.08
2019-05-18T03:49:04.376Z,45.43
2019-05-18T03:51:33.340Z,48.28
2019-05-18T03:54:01.954Z,42.98
2019-05-18T03:56:30.658Z,43.68
2019-05-18T03:59:01.915Z,48.90
2019-05-18T04:01:30.589Z,48.98
2019-05-18T04:03:59.425Z,45.05
2019-05-18T04:06:27.953Z,47.43
2019-05-18T04:08:56.514Z,45.85
2019-05-18T04:11:25.605Z,46.28
2019-05-18T04:13:54.109Z,48.25
2019-05-18T04:16:22.689Z,48.58
2019-05-18T04:18:51.417Z,48.95
2019-05-18T04:21:21.314Z,46.75
2019-05-18T04:23:49.804Z,44.70
2019-05-18T04:26:18.287Z,52.65
2019-05-18T04:28:46.789Z,47.27
2019-05-18T04:31:15.631Z,47.85
2019-05-18T04:33:44.339Z,52.95
2019-05-18T04:36:12.879Z,56.55
2019-05-18T04:38:41.491Z,55.90
2019-05-18T04:41:10.639Z,55.85
2019-05-18T04:43:42.509Z,55.55
2019-05-18T04:48:39.143Z,53.78
2019-05-18T04:51:07.957Z,51.53
2019-05-18T04:53:36.737Z,52.33
2019-05-18T04:56:05.396Z,50.90
2019-05-18T04:58:33.946Z,47.80
2019-05-18T05:01:02.740Z,48.52
2019-05-18T05:03:31.437Z,51.73
2019-05-18T05:05:59.963Z,50.88
2019-05-18T05:08:28.632Z,52.60
2019-05-18T05:10:57.840Z,52.95
2019-05-18T05:13:26.450Z,50.98
2019-05-18T05:15:54.982Z,50.33
2019-05-18T05:18:23.704Z,51.83
2019-05-18T05:20:52.214Z,52.23
2019-05-18T05:23:20.695Z,56.83
2019-05-18T05:25:49.670Z,58.20
2019-05-18T05:28:18.212Z,56.33
2019-05-18T05:30:46.995Z,58.25
2019-05-18T05:33:15.644Z,59.30
2019-05-18T05:35:44.185Z,57.45
2019-05-18T05:38:12.721Z,66.28
2019-05-18T05:40:41.261Z,66.47
2019-05-18T05:43:09.889Z,62.90
2019-05-18T05:45:38.370Z,61.20
2019-05-18T05:48:07.089Z,63.75
2019-05-18T05:50:36.704Z,69.07
2019-05-18T05:53:05.651Z,71.28
2019-05-18T05:55:34.372Z,65.65
2019-05-18T05:58:02.910Z,70.42
2019-05-18T06:00:31.590Z,68.40
2019-05-18T06:03:00.313Z,65.47
2019-05-18T06:05:28.855Z,68.95
2019-05-18T06:07:57.329Z,70.42
2019-05-18T06:10:26.065Z,72.30
2019-05-18T06:12:54.609Z,69.10
2019-05-18T06:15:23.142Z,66.53
2019-05-18T06:17:51.730Z,69.72
2019-05-18T06:20:20.282Z,66.70
2019-05-18T06:22:48.849Z,69.10
2019-05-18T06:25:17.657Z,67.55
2019-05-18T06:27:46.259Z,68.47
2019-05-18T06:30:15.220Z,77.78
2019-05-18T06:32:43.898Z,71.33
2019-05-18T06:35:12.685Z,66.67
2019-05-18T06:37:41.281Z,69.95
2019-05-18T06:40:10.692Z,66.72
2019-05-18T06:42:39.229Z,71.17
2019-05-18T06:45:08.204Z,74.60
2019-05-18T06:47:36.845Z,77.45
2019-05-18T06:50:11.207Z,72.20
2019-05-18T06:52:38.149Z,75.32
2019-05-18T06:55:06.932Z,76.82
2019-05-18T06:57:36.597Z,80.07
2019-05-18T07:00:10.179Z,78.55
2019-05-18T07:02:38.803Z,73.12
2019-05-18T07:05:08.041Z,77.65
2019-05-18T07:07:36.611Z,72.95
2019-05-18T07:10:07.249Z,76.12
2019-05-18T07:12:35.866Z,73.37
2019-05-18T07:15:07.178Z,73.75
2019-05-18T07:17:35.972Z,69.60
2019-05-18T07:20:05.560Z,75.65
2019-05-18T07:22:34.180Z,73.15
2019-05-18T07:25:02.924Z,68.83
2019-05-18T07:27:31.399Z,69.50
2019-05-18T07:30:00.048Z,69.15
2019-05-18T07:32:28.967Z,71.35
2019-05-18T07:34:57.575Z,68.78
2019-05-18T07:37:26.126Z,71.10
2019-05-18T07:39:55.132Z,70.47
2019-05-18T07:42:24.958Z,64.50
2019-05-18T07:44:53.427Z,67.55
2019-05-18T07:47:21.917Z,68.25
2019-05-18T07:49:50.391Z,62.60
2019-05-18T07:52:19.329Z,59.83
2019-05-18T07:54:47.874Z,65.47
2019-05-18T07:57:16.373Z,61.70
2019-05-18T07:59:44.873Z,59.38
2019-05-18T08:02:13.983Z,60.20
2019-05-18T08:04:42.461Z,57.03
2019-05-18T08:07:11.055Z,57.38
2019-05-18T08:09:39.841Z,60.30
2019-05-18T08:12:08.392Z,56.05
2019-05-18T08:14:37.023Z,60.85
2019-05-18T08:17:05.689Z,52.03
2019-05-18T08:19:34.360Z,54.48
2019-05-18T08:22:03.245Z,56.28
2019-05-18T08:24:32.493Z,48.78
2019-05-18T08:27:02.278Z,52.23
2019-05-18T08:29:31.153Z,49.45
2019-05-18T08:32:00.126Z,45.52
2019-05-18T08:34:28.741Z,38.40
2019-05-18T08:36:57.301Z,50.00
2019-05-18T08:39:26.195Z,40.43
2019-05-18T08:41:55.129Z,45.98
2019-05-18T08:44:23.811Z,45.90
2019-05-18T08:46:52.661Z,49.10
2019-05-18T08:49:21.183Z,41.63
2019-05-18T08:51:49.856Z,50.52
2019-05-18T08:54:18.682Z,49.83
2019-05-18T08:56:47.314Z,47.13
2019-05-18T08:59:15.795Z,49.15
2019-05-18T09:01:44.728Z,45.48
2019-05-18T09:04:13.280Z,43.58
2019-05-18T09:06:41.878Z,42.73
2019-05-18T09:09:10.850Z,46.95
2019-05-18T09:11:39.758Z,46.20
2019-05-18T09:14:08.323Z,44.20
2019-05-18T09:16:36.929Z,44.20
2019-05-18T09:19:05.602Z,42.62
2019-05-18T09:21:35.256Z,41.77
2019-05-18T09:24:04.025Z,44.93
2019-05-18T09:26:32.573Z,45.48
2019-05-18T09:29:01.518Z,46.20
2019-05-18T09:31:30.489Z,44.33
2019-05-18T09:33:59.008Z,43.02
2019-05-18T09:36:27.557Z,44.18
2019-05-18T09:38:56.209Z,43.68
2019-05-18T09:41:26.029Z,42.23
2019-05-18T09:43:54.502Z,42.80
2019-05-18T09:46:23.005Z,43.60
2019-05-18T09:48:51.481Z,43.40
2019-05-18T09:51:20.458Z,41.88
2019-05-18T09:53:51.529Z,43.42
2019-05-18T09:56:19.504Z,40.48
2019-05-18T09:58:47.982Z,42.85
2019-05-18T10:01:17.101Z,40.35
2019-05-18T10:03:45.590Z,40.30
2019-05-18T10:06:14.127Z,42.03
2019-05-18T10:08:43.943Z,34.33
2019-05-18T10:11:12.742Z,34.15
2019-05-18T10:13:41.297Z,34.00
2019-05-18T10:16:09.947Z,35.90
2019-05-18T10:18:38.495Z,35.38
2019-05-18T10:21:07.087Z,34.40
2019-05-18T10:23:35.706Z,34.20
2019-05-18T10:26:04.475Z,35.73
2019-05-18T10:28:33.013Z,33.18
2019-05-18T10:31:02.478Z,33.63
2019-05-18T10:33:31.020Z,33.40
2019-05-18T10:35:59.526Z,32.73
2019-05-18T10:38:28.031Z,35.30
2019-05-18T10:40:56.577Z,32.80
2019-05-18T10:43:25.157Z,31.85
2019-05-18T10:45:53.936Z,37.13
2019-05-18T10:48:22.525Z,36.50
2019-05-18T10:50:51.321Z,32.67
2019-05-18T10:53:28.276Z,35.23
2019-05-18T10:55:50.998Z,40.25
2019-05-18T10:58:19.515Z,39.83
2019-05-18T11:00:48.286Z,39.65
2019-05-18T11:03:17.046Z,38.17
2019-05-18T11:05:45.598Z,40.83
2019-05-18T11:08:14.112Z,40.10
2019-05-18T11:10:42.894Z,43.58
2019-05-18T11:13:11.358Z,46.75
2019-05-18T11:15:40.389Z,39.00
2019-05-18T11:18:08.929Z,40.15
2019-05-18T11:20:38.477Z,40.70
2019-05-18T11:23:07.381Z,41.05
2019-05-18T11:25:35.967Z,41.10
2019-05-18T11:28:04.537Z,38.75
2019-05-18T11:30:33.403Z,36.95
2019-05-18T11:33:03.437Z,38.85
2019-05-18T11:35:32.068Z,37.73
2019-05-18T11:38:00.629Z,36.73
2019-05-18T11:40:29.751Z,39.67
2019-05-18T11:42:58.241Z,37.38
2019-05-18T11:45:28.217Z,36.10
2019-05-18T11:47:56.807Z,38.13
2019-05-18T11:50:28.039Z,40.20
2019-05-18T11:52:56.886Z,39.78
2019-05-18T11:55:25.656Z,38.25
2019-05-18T11:57:54.266Z,40.15
2019-05-18T12:00:24.053Z,39.45
2019-05-18T12:02:52.675Z,41.02
2019-05-18T12:05:21.359Z,38.23
2019-05-18T12:07:50.016Z,40.00
2019-05-18T12:10:20.231Z,39.15
2019-05-18T12:12:48.864Z,38.70
2019-05-18T12:15:18.214Z,38.53
2019-05-18T12:17:46.777Z,41.40
2019-05-18T12:20:17.408Z,41.70
2019-05-18T12:22:46.121Z,42.77
2019-05-18T12:25:15.006Z,40.00
2019-05-18T12:27:43.741Z,46.13
2019-05-18T12:30:14.297Z,44.53
2019-05-18T12:32:42.912Z,42.73
2019-05-18T12:35:11.886Z,43.25
2019-05-18T12:37:40.446Z,44.23
2019-05-18T12:40:09.938Z,48.15
2019-05-18T12:42:40.075Z,50.08
2019-05-18T12:45:10.443Z,46.95
2019-05-18T12:47:39.229Z,47.15
2019-05-18T12:50:08.745Z,48.78
2019-05-18T12:52:37.566Z,49.77
2019-05-18T12:55:07.291Z,50.17
2019-05-18T12:57:36.728Z,49.20
2019-05-18T13:00:14.380Z,51.15
2019-05-18T13:02:43.060Z,51.63
2019-05-18T13:05:12.067Z,56.05
2019-05-18T13:07:40.733Z,56.25
2019-05-18T13:10:10.819Z,52.73
2019-05-18T13:12:39.617Z,59.42
2019-05-18T13:15:10.492Z,57.45
2019-05-18T13:17:39.129Z,57.15
2019-05-18T13:20:09.676Z,56.05
2019-05-18T13:22:38.498Z,61.83
2019-05-18T13:25:08.110Z,61.20
2019-05-18T13:27:39.870Z,62.20
2019-05-18T13:30:09.401Z,63.17
2019-05-18T13:32:38.024Z,63.05
2019-05-18T13:35:08.172Z,63.63
2019-05-18T13:37:36.982Z,60.98
2019-05-18T13:40:07.410Z,62.30
2019-05-18T13:42:35.962Z,63.73
2019-05-18T13:45:06.791Z,63.10
2019-05-18T13:47:35.308Z,65.87
2019-05-18T13:50:04.859Z,65.70
2019-05-18T13:52:33.525Z,63.55
2019-05-18T13:55:04.775Z,66.85
2019-05-18T13:57:32.474Z,61.42
2019-05-18T14:00:01.282Z,64.58
2019-05-18T14:02:30.238Z,59.70
2019-05-18T14:04:58.773Z,64.85
2019-05-18T14:07:27.445Z,61.48
2019-05-18T14:09:57.856Z,64.53
2019-05-18T14:12:27.808Z,62.58
2019-05-18T14:14:56.523Z,61.85
2019-05-18T14:17:25.188Z,59.25
2019-05-18T14:19:53.772Z,61.98
2019-05-18T14:22:22.676Z,60.98
2019-05-18T14:24:51.300Z,58.28
2019-05-18T14:27:21.385Z,58.15
2019-05-18T14:29:50.193Z,61.70
2019-05-18T14:32:19.225Z,57.93
2019-05-18T14:34:47.721Z,59.08
2019-05-18T14:37:16.447Z,58.73
2019-05-18T14:39:45.059Z,58.83
2019-05-18T14:42:13.673Z,58.23
2019-05-18T14:44:42.303Z,55.10
2019-05-18T14:47:10.841Z,59.53
2019-05-18T14:49:39.396Z,59.05
2019-05-18T14:52:11.803Z,57.45
2019-05-18T14:54:38.384Z,56.85
2019-05-18T14:57:06.916Z,59.48
2019-05-18T14:59:35.643Z,60.25
2019-05-18T15:02:04.602Z,60.65
2019-05-18T15:04:33.218Z,61.18
2019-05-18T15:07:01.821Z,60.15
2019-05-18T15:09:30.516Z,63.25
2019-05-18T15:11:59.185Z,59.40
2019-05-18T15:14:27.788Z,60.75
2019-05-18T15:16:59.332Z,56.83
2019-05-18T15:19:27.864Z,60.35
2019-05-18T15:21:57.048Z,62.88
2019-05-18T15:24:25.606Z,60.90
2019-05-18T15:26:54.212Z,59.60
2019-05-18T15:29:22.719Z,60.08
2019-05-18T15:31:51.538Z,59.33
2019-05-18T15:34:20.081Z,61.42
2019-05-18T15:36:49.135Z,59.73
2019-05-18T15:39:18.180Z,61.25
2019-05-18T15:41:47.142Z,62.27
2019-05-18T15:44:15.817Z,62.55
2019-05-18T15:46:44.327Z,65.90
2019-05-18T15:49:12.892Z,61.55
2019-05-18T15:51:41.944Z,64.47
2019-05-18T15:54:10.494Z,64.80
2019-05-18T15:56:39.048Z,63.52
2019-05-18T15:59:07.700Z,62.88
2019-05-18T16:01:36.566Z,62.55
2019-05-18T16:04:06.687Z,63.83
2019-05-18T16:06:38.346Z,67.60
2019-05-18T16:09:07.486Z,64.90
2019-05-18T16:11:36.237Z,65.52
2019-05-18T16:14:05.274Z,65.52
2019-05-18T16:16:33.767Z,69.17
2019-05-18T16:19:02.452Z,63.42
2019-05-18T16:21:31.623Z,60.40
2019-05-18T16:24:00.189Z,63.17
2019-05-18T16:26:28.760Z,63.50
2019-05-18T16:28:57.323Z,62.20
2019-05-18T16:31:26.162Z,61.55
2019-05-18T16:33:54.677Z,58.78
2019-05-18T16:36:23.470Z,57.90
2019-05-18T16:38:51.942Z,55.83
2019-05-18T16:41:20.491Z,61.20
2019-05-18T16:43:49.213Z,57.45
2019-05-18T16:46:17.890Z,54.83
2019-05-18T16:48:46.457Z,56.90
2019-05-18T16:51:15.381Z,61.77
2019-05-18T16:53:48.022Z,58.95
2019-05-18T16:56:14.190Z,56.28
2019-05-18T16:58:43.203Z,56.13
2019-05-18T17:01:12.045Z,55.73
2019-05-18T17:03:40.586Z,59.45
2019-05-18T17:06:09.387Z,56.25
2019-05-18T17:08:38.021Z,56.95
2019-05-18T17:11:06.857Z,59.00
2019-05-18T17:13:35.627Z,56.35
2019-05-18T17:16:04.175Z,56.83
2019-05-18T17:18:32.799Z,56.95
2019-05-18T17:21:01.701Z,54.95
2019-05-18T17:23:30.339Z,54.95
2019-05-18T17:25:58.918Z,53.48
2019-05-18T17:28:27.559Z,54.65
2019-05-18T17:30:56.347Z,57.75
2019-05-18T17:33:24.960Z,56.45
2019-05-18T17:36:00.459Z,58.83
2019-05-18T17:38:23.980Z,53.35
2019-05-18T17:40:52.719Z,53.95
2019-05-18T17:43:21.399Z,55.63
2019-05-18T17:45:49.937Z,54.67
2019-05-18T17:48:18.501Z,57.88
2019-05-18T17:50:47.428Z,55.30
2019-05-18T17:53:15.988Z,58.02
2019-05-18T17:55:44.595Z,53.95
2019-05-18T17:58:13.076Z,54.67
2019-05-18T18:00:41.676Z,54.77
2019-05-18T18:03:10.274Z,56.15
2019-05-18T18:05:38.965Z,57.30
2019-05-18T18:08:07.577Z,57.27
2019-05-18T18:10:36.464Z,58.63
2019-05-18T18:13:05.539Z,62.43
2019-05-18T18:15:34.109Z,61.63
2019-05-18T18:18:02.798Z,65.50
2019-05-18T18:20:31.918Z,68.80
2019-05-18T18:23:00.507Z,60.15
2019-05-18T18:25:29.079Z,62.35
2019-05-18T18:27:57.710Z,67.17
2019-05-18T18:30:26.442Z,65.25
2019-05-18T18:32:55.035Z,64.97
2019-05-18T18:35:23.851Z,62.55
2019-05-18T18:37:52.361Z,61.68
2019-05-18T18:40:21.251Z,64.22
2019-05-18T18:42:50.211Z,66.20
2019-05-18T18:45:20.520Z,63.73
2019-05-18T18:47:49.066Z,66.25
2019-05-18T18:50:18.814Z,67.97
2019-05-18T18:52:47.436Z,69.40
2019-05-18T18:55:16.639Z,65.80
2019-05-18T18:57:45.188Z,71.33
2019-05-18T19:00:15.909Z,68.87
2019-05-18T19:02:44.440Z,70.80
2019-05-18T19:05:13.953Z,68.00
2019-05-18T19:07:42.437Z,72.65
2019-05-18T19:10:12.856Z,70.95
2019-05-18T19:12:41.490Z,70.03
2019-05-18T19:15:10.760Z,76.07
2019-05-18T19:17:39.377Z,70.35
2019-05-18T19:20:08.845Z,67.55
2019-05-18T19:22:37.431Z,72.50
2019-05-18T19:25:06.573Z,72.37
2019-05-18T19:27:35.227Z,74.30
2019-05-18T19:30:10.047Z,74.45
2019-05-18T19:32:38.261Z,72.67
2019-05-18T19:35:08.384Z,75.92
2019-05-18T19:37:37.306Z,73.17
2019-05-18T19:40:07.685Z,78.15
2019-05-18T19:42:36.318Z,75.67
2019-05-18T19:45:06.851Z,76.02
2019-05-18T19:47:35.470Z,76.72
2019-05-18T19:50:06.426Z,75.83
2019-05-18T19:52:35.130Z,77.22
2019-05-18T19:55:04.926Z,72.60
2019-05-18T19:57:33.797Z,74.35
2019-05-18T20:00:03.402Z,72.40
2019-05-18T20:02:31.999Z,70.92
2019-05-18T20:05:07.409Z,75.30
2019-05-18T20:07:31.094Z,72.42
2019-05-18T20:09:59.643Z,74.25
2019-05-18T20:12:28.549Z,74.07
2019-05-18T20:14:57.143Z,78.37
2019-05-18T20:17:25.672Z,76.75
2019-05-18T20:19:54.390Z,79.07
2019-05-18T20:22:23.099Z,81.10
2019-05-18T20:24:51.611Z,77.05
2019-05-18T20:27:21.991Z,81.10
2019-05-18T20:29:50.592Z,81.70
2019-05-18T20:32:19.570Z,83.52
2019-05-18T20:34:48.111Z,79.07
2019-05-18T20:37:16.644Z,83.72
2019-05-18T20:39:45.594Z,79.55
2019-05-18T20:42:14.255Z,85.60
2019-05-18T20:44:42.791Z,87.33
2019-05-18T20:47:11.354Z,85.85
2019-05-18T20:49:40.149Z,87.27
2019-05-18T20:52:09.028Z,88.52
2019-05-18T20:54:37.623Z,94.65
2019-05-18T20:57:06.529Z,93.30
2019-05-18T20:59:35.140Z,94.62
2019-05-18T21:02:03.739Z,95.55
2019-05-18T21:04:32.328Z,94.62
2019-05-18T21:07:00.774Z,88.47
2019-05-18T21:09:29.443Z,94.22
2019-05-18T21:11:58.225Z,94.72
2019-05-18T21:14:26.790Z,93.45
2019-05-18T21:16:55.248Z,96.67
2019-05-18T21:19:26.726Z,97.88
2019-05-18T21:21:55.642Z,99.52
2019-05-18T21:24:24.169Z,92.10
2019-05-18T21:26:52.801Z,93.30
2019-05-18T21:29:21.384Z,96.85
2019-05-18T21:31:51.195Z,94.35
2019-05-18T21:34:19.764Z,94.00
2019-05-18T21:36:48.380Z,90.38
2019-05-18T21:39:17.391Z,90.07
2019-05-18T21:41:47.269Z,90.38
2019-05-18T21:44:15.828Z,93.45
2019-05-18T21:46:44.394Z,97.70
2019-05-18T21:49:13.214Z,91.87
2019-05-18T21:51:42.097Z,96.10
2019-05-18T21:54:10.719Z,95.62
2019-05-18T21:56:39.435Z,90.20
2019-05-18T21:59:11.706Z,92.20
2019-05-18T22:01:39.076Z,92.80
2019-05-18T22:04:07.825Z,90.80
2019-05-18T22:06:36.454Z,93.90
2019-05-18T22:09:06.781Z,95.55
2019-05-18T22:11:36.137Z,92.62
2019-05-18T22:14:05.346Z,87.40
2019-05-18T22:16:33.878Z,94.58
2019-05-18T22:19:02.709Z,95.30
2019-05-18T22:21:31.305Z,92.20
2019-05-18T22:23:59.896Z,96.87
2019-05-18T22:26:28.409Z,99.35
2019-05-18T22:28:56.892Z,98.15
2019-05-18T22:31:25.525Z,96.57
2019-05-18T22:33:54.082Z,97.33
2019-05-18T22:36:22.631Z,99.52
2019-05-18T22:38:51.195Z,99.87
2019-05-18T22:41:19.922Z,104.75
2019-05-18T22:43:48.405Z,95.25
2019-05-18T22:46:16.951Z,100.22
2019-05-18T22:48:45.516Z,104.92
2019-05-18T22:51:16.269Z,99.80
2019-05-18T22:53:46.599Z,99.35
2019-05-18T22:56:15.385Z,99.85
2019-05-18T22:58:43.954Z,99.97
2019-05-18T23:01:12.649Z,101.65
2019-05-18T23:03:41.226Z,108.20
2019-05-18T23:06:09.698Z,99.60
2019-05-18T23:08:38.177Z,107.15
2019-05-18T23:11:06.977Z,100.42
2019-05-18T23:13:35.470Z,104.27
2019-05-18T23:16:04.083Z,102.75
2019-05-18T23:18:32.925Z,101.15
2019-05-18T23:21:01.642Z,97.02
2019-05-18T23:23:30.178Z,106.00
2019-05-18T23:25:58.759Z,100.35
2019-05-18T23:28:27.339Z,103.75
2019-05-18T23:30:56.012Z,101.18
2019-05-18T23:33:24.650Z,102.60
2019-05-18T23:35:53.234Z,96.95
2019-05-18T23:38:21.793Z,99.22
2019-05-18T23:40:50.459Z,101.85
2019-05-18T23:43:18.943Z,99.15
2019-05-18T23:45:47.493Z,102.00
2019-05-18T23:48:16.284Z,103.40
2019-05-18T23:50:45.003Z,95.57
2019-05-18T23:53:13.500Z,104.00
2019-05-18T23:55:41.999Z,104.60
2019-05-18T23:58:10.476Z,102.53
